sensor_id;sensor_type;location;lat;lon;timestamp;temperature;humidity
11965;DHT22;6042;41.326;19.826;2023-09-07T00:02:14;26.30;80.90
11965;DHT22;6042;41.326;19.826;2023-09-07T00:04:47;26.30;80.50
11965;DHT22;6042;41.326;19.826;2023-09-07T00:07:17;26.30;80.40
11965;DHT22;6042;41.326;19.826;2023-09-07T00:09:47;26.30;80.90
11965;DHT22;6042;41.326;19.826;2023-09-07T00:12:18;26.30;80.60
11965;DHT22;6042;41.326;19.826;2023-09-07T00:14:46;26.60;79.90
11965;DHT22;6042;41.326;19.826;2023-09-07T00:17:15;26.50;84.10
11965;DHT22;6042;41.326;19.826;2023-09-07T00:19:45;26.40;86.00
11965;DHT22;6042;41.326;19.826;2023-09-07T00:22:16;26.20;86.20
11965;DHT22;6042;41.326;19.826;2023-09-07T00:24:47;26.20;86.60
11965;DHT22;6042;41.326;19.826;2023-09-07T00:27:16;26.30;85.80
11965;DHT22;6042;41.326;19.826;2023-09-07T00:29:45;26.30;85.60
11965;DHT22;6042;41.326;19.826;2023-09-07T00:32:14;26.50;84.20
11965;DHT22;6042;41.326;19.826;2023-09-07T00:34:42;26.60;84.80
11965;DHT22;6042;41.326;19.826;2023-09-07T00:37:11;26.60;84.80
11965;DHT22;6042;41.326;19.826;2023-09-07T00:39:39;26.60;84.70
11965;DHT22;6042;41.326;19.826;2023-09-07T00:42:09;26.60;86.20
11965;DHT22;6042;41.326;19.826;2023-09-07T00:44:38;26.40;86.30
11965;DHT22;6042;41.326;19.826;2023-09-07T00:47:08;26.40;85.90
11965;DHT22;6042;41.326;19.826;2023-09-07T00:49:37;26.30;89.20
11965;DHT22;6042;41.326;19.826;2023-09-07T00:52:07;26.30;87.90
11965;DHT22;6042;41.326;19.826;2023-09-07T00:54:37;26.50;85.80
11965;DHT22;6042;41.326;19.826;2023-09-07T00:57:09;26.70;85.70
11965;DHT22;6042;41.326;19.826;2023-09-07T00:59:38;26.70;86.20
11965;DHT22;6042;41.326;19.826;2023-09-07T01:02:06;26.60;86.60
11965;DHT22;6042;41.326;19.826;2023-09-07T01:04:36;26.70;86.20
11965;DHT22;6042;41.326;19.826;2023-09-07T01:07:09;26.60;87.70
11965;DHT22;6042;41.326;19.826;2023-09-07T01:09:42;26.60;86.30
11965;DHT22;6042;41.326;19.826;2023-09-07T01:12:15;26.50;87.90
11965;DHT22;6042;41.326;19.826;2023-09-07T01:14:44;26.50;88.10
11965;DHT22;6042;41.326;19.826;2023-09-07T01:17:14;26.30;88.50
11965;DHT22;6042;41.326;19.826;2023-09-07T01:19:44;26.30;89.90
11965;DHT22;6042;41.326;19.826;2023-09-07T01:22:16;26.20;90.10
11965;DHT22;6042;41.326;19.826;2023-09-07T01:24:47;26.20;90.20
11965;DHT22;6042;41.326;19.826;2023-09-07T01:27:16;26.10;89.80
11965;DHT22;6042;41.326;19.826;2023-09-07T01:29:45;26.30;87.70
11965;DHT22;6042;41.326;19.826;2023-09-07T01:32:13;26.40;89.10
11965;DHT22;6042;41.326;19.826;2023-09-07T01:34:42;26.30;90.00
11965;DHT22;6042;41.326;19.826;2023-09-07T01:37:11;26.20;90.10
11965;DHT22;6042;41.326;19.826;2023-09-07T01:39:41;26.10;90.10
11965;DHT22;6042;41.326;19.826;2023-09-07T01:42:09;26.20;89.00
11965;DHT22;6042;41.326;19.826;2023-09-07T01:44:38;26.50;86.90
11965;DHT22;6042;41.326;19.826;2023-09-07T01:47:07;26.70;85.90
11965;DHT22;6042;41.326;19.826;2023-09-07T01:49:35;26.50;87.70
11965;DHT22;6042;41.326;19.826;2023-09-07T01:52:05;26.50;84.40
11965;DHT22;6042;41.326;19.826;2023-09-07T01:54:34;26.40;84.00
11965;DHT22;6042;41.326;19.826;2023-09-07T01:57:04;26.30;83.90
11965;DHT22;6042;41.326;19.826;2023-09-07T01:59:34;26.50;83.70
11965;DHT22;6042;41.326;19.826;2023-09-07T02:02:03;26.40;83.10
11965;DHT22;6042;41.326;19.826;2023-09-07T02:04:32;26.40;83.00
11965;DHT22;6042;41.326;19.826;2023-09-07T02:07:01;26.30;83.40
11965;DHT22;6042;41.326;19.826;2023-09-07T02:09:31;26.50;82.50
11965;DHT22;6042;41.326;19.826;2023-09-07T02:11:59;26.70;81.90
11965;DHT22;6042;41.326;19.826;2023-09-07T02:14:32;26.80;81.20
11965;DHT22;6042;41.326;19.826;2023-09-07T02:17:01;26.30;81.30
11965;DHT22;6042;41.326;19.826;2023-09-07T02:19:30;25.60;83.40
11965;DHT22;6042;41.326;19.826;2023-09-07T02:21:58;25.70;84.10
11965;DHT22;6042;41.326;19.826;2023-09-07T02:24:28;26.10;83.20
11965;DHT22;6042;41.326;19.826;2023-09-07T02:26:57;26.50;81.90
11965;DHT22;6042;41.326;19.826;2023-09-07T02:29:26;26.70;81.20
11965;DHT22;6042;41.326;19.826;2023-09-07T02:31:56;26.80;81.00
11965;DHT22;6042;41.326;19.826;2023-09-07T02:34:25;26.60;81.50
11965;DHT22;6042;41.326;19.826;2023-09-07T02:36:53;26.60;81.50
11965;DHT22;6042;41.326;19.826;2023-09-07T02:39:25;26.70;81.80
11965;DHT22;6042;41.326;19.826;2023-09-07T02:41:54;26.50;89.70
11965;DHT22;6042;41.326;19.826;2023-09-07T02:44:22;26.30;91.10
11965;DHT22;6042;41.326;19.826;2023-09-07T02:46:51;26.00;83.90
11965;DHT22;6042;41.326;19.826;2023-09-07T02:49:21;26.00;84.00
11965;DHT22;6042;41.326;19.826;2023-09-07T02:51:50;26.20;83.30
11965;DHT22;6042;41.326;19.826;2023-09-07T02:54:19;26.20;82.70
11965;DHT22;6042;41.326;19.826;2023-09-07T02:56:49;26.50;82.40
11965;DHT22;6042;41.326;19.826;2023-09-07T02:59:18;26.70;81.70
11965;DHT22;6042;41.326;19.826;2023-09-07T03:01:48;26.70;81.60
11965;DHT22;6042;41.326;19.826;2023-09-07T03:04:17;26.60;81.40
11965;DHT22;6042;41.326;19.826;2023-09-07T03:06:47;26.70;81.30
11965;DHT22;6042;41.326;19.826;2023-09-07T03:09:16;26.80;81.00
11965;DHT22;6042;41.326;19.826;2023-09-07T03:11:44;26.50;83.20
11965;DHT22;6042;41.326;19.826;2023-09-07T03:14:14;26.30;82.90
11965;DHT22;6042;41.326;19.826;2023-09-07T03:16:42;26.20;87.20
11965;DHT22;6042;41.326;19.826;2023-09-07T03:19:11;26.30;87.30
11965;DHT22;6042;41.326;19.826;2023-09-07T03:21:40;26.20;89.80
11965;DHT22;6042;41.326;19.826;2023-09-07T03:24:10;26.10;89.20
11965;DHT22;6042;41.326;19.826;2023-09-07T03:26:39;26.20;85.90
11965;DHT22;6042;41.326;19.826;2023-09-07T03:29:07;26.20;86.70
11965;DHT22;6042;41.326;19.826;2023-09-07T03:31:37;26.20;85.60
11965;DHT22;6042;41.326;19.826;2023-09-07T03:34:06;26.40;84.80
11965;DHT22;6042;41.326;19.826;2023-09-07T03:36:34;26.50;84.20
11965;DHT22;6042;41.326;19.826;2023-09-07T03:39:03;26.40;88.30
11965;DHT22;6042;41.326;19.826;2023-09-07T03:41:36;26.30;89.00
11965;DHT22;6042;41.326;19.826;2023-09-07T03:44:06;26.20;83.40
11965;DHT22;6042;41.326;19.826;2023-09-07T03:46:34;25.80;84.10
11965;DHT22;6042;41.326;19.826;2023-09-07T03:49:04;25.90;85.10
11965;DHT22;6042;41.326;19.826;2023-09-07T03:51:32;26.10;84.00
11965;DHT22;6042;41.326;19.826;2023-09-07T03:54:01;26.40;82.90
11965;DHT22;6042;41.326;19.826;2023-09-07T03:56:30;26.50;82.50
11965;DHT22;6042;41.326;19.826;2023-09-07T03:59:00;26.40;82.40
11965;DHT22;6042;41.326;19.826;2023-09-07T04:01:29;26.40;82.40
11965;DHT22;6042;41.326;19.826;2023-09-07T04:03:58;26.30;82.20
11965;DHT22;6042;41.326;19.826;2023-09-07T04:06:26;26.30;82.40
11965;DHT22;6042;41.326;19.826;2023-09-07T04:08:55;26.20;81.70
11965;DHT22;6042;41.326;19.826;2023-09-07T04:11:24;26.20;82.80
11965;DHT22;6042;41.326;19.826;2023-09-07T04:13:53;26.20;86.20
11965;DHT22;6042;41.326;19.826;2023-09-07T04:16:23;26.20;86.80
11965;DHT22;6042;41.326;19.826;2023-09-07T04:18:52;26.10;86.00
11965;DHT22;6042;41.326;19.826;2023-09-07T04:21:21;26.00;85.90
11965;DHT22;6042;41.326;19.826;2023-09-07T04:23:50;26.00;85.20
11965;DHT22;6042;41.326;19.826;2023-09-07T04:26:20;26.00;88.10
11965;DHT22;6042;41.326;19.826;2023-09-07T04:28:49;25.90;88.00
11965;DHT22;6042;41.326;19.826;2023-09-07T04:31:17;25.80;88.20
11965;DHT22;6042;41.326;19.826;2023-09-07T04:33:48;25.80;87.30
11965;DHT22;6042;41.326;19.826;2023-09-07T04:36:16;26.00;87.30
11965;DHT22;6042;41.326;19.826;2023-09-07T04:38:47;26.10;86.20
11965;DHT22;6042;41.326;19.826;2023-09-07T04:41:16;26.10;86.70
11965;DHT22;6042;41.326;19.826;2023-09-07T04:43:44;25.90;89.70
11965;DHT22;6042;41.326;19.826;2023-09-07T04:46:14;25.70;85.90
11965;DHT22;6042;41.326;19.826;2023-09-07T04:48:44;25.80;84.50
11965;DHT22;6042;41.326;19.826;2023-09-07T04:51:14;25.80;86.00
11965;DHT22;6042;41.326;19.826;2023-09-07T04:53:44;25.80;84.20
11965;DHT22;6042;41.326;19.826;2023-09-07T04:56:13;25.80;84.10
11965;DHT22;6042;41.326;19.826;2023-09-07T04:58:43;25.80;83.50
11965;DHT22;6042;41.326;19.826;2023-09-07T05:01:13;25.70;83.80
11965;DHT22;6042;41.326;19.826;2023-09-07T05:03:42;25.70;83.70
11965;DHT22;6042;41.326;19.826;2023-09-07T05:06:11;25.70;83.40
11965;DHT22;6042;41.326;19.826;2023-09-07T05:08:42;25.80;83.50
11965;DHT22;6042;41.326;19.826;2023-09-07T05:11:11;25.90;83.70
11965;DHT22;6042;41.326;19.826;2023-09-07T05:13:40;25.90;84.10
11965;DHT22;6042;41.326;19.826;2023-09-07T05:16:09;26.00;83.20
11965;DHT22;6042;41.326;19.826;2023-09-07T05:18:40;26.00;83.30
11965;DHT22;6042;41.326;19.826;2023-09-07T05:21:14;25.80;84.70
11965;DHT22;6042;41.326;19.826;2023-09-07T05:23:46;25.80;84.80
11965;DHT22;6042;41.326;19.826;2023-09-07T05:26:14;25.70;83.80
11965;DHT22;6042;41.326;19.826;2023-09-07T05:28:48;25.70;83.90
11965;DHT22;6042;41.326;19.826;2023-09-07T05:31:17;25.80;88.10
11965;DHT22;6042;41.326;19.826;2023-09-07T05:33:46;25.90;91.10
11965;DHT22;6042;41.326;19.826;2023-09-07T05:36:15;26.10;90.10
11965;DHT22;6042;41.326;19.826;2023-09-07T05:38:45;26.30;87.40
11965;DHT22;6042;41.326;19.826;2023-09-07T05:41:14;26.40;90.80
11965;DHT22;6042;41.326;19.826;2023-09-07T05:43:42;26.40;88.90
11965;DHT22;6042;41.326;19.826;2023-09-07T05:46:11;26.50;86.00
11965;DHT22;6042;41.326;19.826;2023-09-07T05:48:40;26.70;87.20
11965;DHT22;6042;41.326;19.826;2023-09-07T05:51:09;26.80;85.30
11965;DHT22;6042;41.326;19.826;2023-09-07T05:53:39;26.80;85.40
11965;DHT22;6042;41.326;19.826;2023-09-07T05:56:09;26.70;87.00
11965;DHT22;6042;41.326;19.826;2023-09-07T05:58:37;26.70;87.70
11965;DHT22;6042;41.326;19.826;2023-09-07T06:01:06;26.70;86.30
11965;DHT22;6042;41.326;19.826;2023-09-07T06:03:35;26.70;86.80
11965;DHT22;6042;41.326;19.826;2023-09-07T06:06:04;26.70;84.50
11965;DHT22;6042;41.326;19.826;2023-09-07T06:08:32;26.80;83.50
11965;DHT22;6042;41.326;19.826;2023-09-07T06:11:01;26.80;83.40
11965;DHT22;6042;41.326;19.826;2023-09-07T06:13:31;26.90;82.80
11965;DHT22;6042;41.326;19.826;2023-09-07T06:16:00;26.80;82.50
11965;DHT22;6042;41.326;19.826;2023-09-07T06:18:30;26.90;82.50
11965;DHT22;6042;41.326;19.826;2023-09-07T06:20:59;26.90;82.40
11965;DHT22;6042;41.326;19.826;2023-09-07T06:23:28;27.00;81.90
11965;DHT22;6042;41.326;19.826;2023-09-07T06:25:59;27.10;81.30
11965;DHT22;6042;41.326;19.826;2023-09-07T06:28:28;27.20;80.70
11965;DHT22;6042;41.326;19.826;2023-09-07T06:30:59;27.30;79.90
11965;DHT22;6042;41.326;19.826;2023-09-07T06:33:28;27.40;79.70
11965;DHT22;6042;41.326;19.826;2023-09-07T06:35:56;27.50;79.10
11965;DHT22;6042;41.326;19.826;2023-09-07T06:38:28;27.60;78.70
11965;DHT22;6042;41.326;19.826;2023-09-07T06:40:59;27.60;77.50
11965;DHT22;6042;41.326;19.826;2023-09-07T06:43:27;27.60;78.40
11965;DHT22;6042;41.326;19.826;2023-09-07T06:46:06;27.70;78.20
11965;DHT22;6042;41.326;19.826;2023-09-07T06:48:35;27.80;76.30
11965;DHT22;6042;41.326;19.826;2023-09-07T06:51:05;27.80;76.90
11965;DHT22;6042;41.326;19.826;2023-09-07T06:53:35;27.80;76.60
11965;DHT22;6042;41.326;19.826;2023-09-07T06:56:24;27.90;76.20
11965;DHT22;6042;41.326;19.826;2023-09-07T06:58:54;28.00;73.80
11965;DHT22;6042;41.326;19.826;2023-09-07T07:01:25;28.00;73.60
11965;DHT22;6042;41.326;19.826;2023-09-07T07:03:53;28.00;74.40
11965;DHT22;6042;41.326;19.826;2023-09-07T07:06:25;28.00;74.00
11965;DHT22;6042;41.326;19.826;2023-09-07T07:08:54;28.00;74.10
11965;DHT22;6042;41.326;19.826;2023-09-07T07:11:23;28.10;72.50
11965;DHT22;6042;41.326;19.826;2023-09-07T07:13:52;28.10;71.60
11965;DHT22;6042;41.326;19.826;2023-09-07T07:16:21;28.10;72.50
11965;DHT22;6042;41.326;19.826;2023-09-07T07:18:52;28.20;71.70
11965;DHT22;6042;41.326;19.826;2023-09-07T07:21:23;28.30;70.40
11965;DHT22;6042;41.326;19.826;2023-09-07T07:23:52;28.30;69.30
11965;DHT22;6042;41.326;19.826;2023-09-07T07:26:21;28.40;68.90
11965;DHT22;6042;41.326;19.826;2023-09-07T07:28:50;28.50;68.60
11965;DHT22;6042;41.326;19.826;2023-09-07T07:31:19;28.60;68.40
11965;DHT22;6042;41.326;19.826;2023-09-07T07:33:49;28.60;68.70
11965;DHT22;6042;41.326;19.826;2023-09-07T07:36:20;28.80;68.60
11965;DHT22;6042;41.326;19.826;2023-09-07T07:38:48;28.90;67.70
11965;DHT22;6042;41.326;19.826;2023-09-07T07:41:18;29.00;67.00
11965;DHT22;6042;41.326;19.826;2023-09-07T07:43:47;29.00;68.20
11965;DHT22;6042;41.326;19.826;2023-09-07T07:46:16;29.00;68.50
11965;DHT22;6042;41.326;19.826;2023-09-07T07:48:47;28.70;68.80
11965;DHT22;6042;41.326;19.826;2023-09-07T07:51:16;28.70;67.80
11965;DHT22;6042;41.326;19.826;2023-09-07T07:53:49;28.70;68.10
11965;DHT22;6042;41.326;19.826;2023-09-07T07:56:19;28.60;68.80
11965;DHT22;6042;41.326;19.826;2023-09-07T07:58:51;28.60;68.40
11965;DHT22;6042;41.326;19.826;2023-09-07T08:01:20;28.60;67.50
11965;DHT22;6042;41.326;19.826;2023-09-07T08:03:52;28.70;67.70
11965;DHT22;6042;41.326;19.826;2023-09-07T08:06:22;28.90;67.50
11965;DHT22;6042;41.326;19.826;2023-09-07T08:08:53;29.00;67.90
11965;DHT22;6042;41.326;19.826;2023-09-07T08:11:21;29.10;66.60
11965;DHT22;6042;41.326;19.826;2023-09-07T08:14:04;29.20;71.70
11965;DHT22;6042;41.326;19.826;2023-09-07T08:16:38;29.20;72.60
11965;DHT22;6042;41.326;19.826;2023-09-07T08:19:07;29.30;70.20
11965;DHT22;6042;41.326;19.826;2023-09-07T08:21:36;29.20;67.70
11965;DHT22;6042;41.326;19.826;2023-09-07T08:24:06;29.20;65.40
11965;DHT22;6042;41.326;19.826;2023-09-07T08:26:35;29.20;65.50
11965;DHT22;6042;41.326;19.826;2023-09-07T08:29:08;29.20;66.10
11965;DHT22;6042;41.326;19.826;2023-09-07T08:31:38;29.40;65.90
11965;DHT22;6042;41.326;19.826;2023-09-07T08:34:07;29.40;65.10
11965;DHT22;6042;41.326;19.826;2023-09-07T08:36:41;29.20;65.20
11965;DHT22;6042;41.326;19.826;2023-09-07T08:39:10;29.30;65.50
11965;DHT22;6042;41.326;19.826;2023-09-07T08:41:41;29.20;65.20
11965;DHT22;6042;41.326;19.826;2023-09-07T08:44:28;29.00;65.40
11965;DHT22;6042;41.326;19.826;2023-09-07T08:46:59;29.10;65.80
11965;DHT22;6042;41.326;19.826;2023-09-07T08:49:28;29.20;66.20
11965;DHT22;6042;41.326;19.826;2023-09-07T08:51:59;29.20;65.60
11965;DHT22;6042;41.326;19.826;2023-09-07T08:54:30;29.40;66.60
11965;DHT22;6042;41.326;19.826;2023-09-07T08:57:02;29.40;65.20
11965;DHT22;6042;41.326;19.826;2023-09-07T08:59:32;29.40;65.20
11965;DHT22;6042;41.326;19.826;2023-09-07T09:02:00;29.40;64.20
11965;DHT22;6042;41.326;19.826;2023-09-07T09:04:32;29.50;64.30
11965;DHT22;6042;41.326;19.826;2023-09-07T09:07:01;29.50;64.80
11965;DHT22;6042;41.326;19.826;2023-09-07T09:09:32;29.60;65.20
11965;DHT22;6042;41.326;19.826;2023-09-07T09:12:07;29.80;64.80
11965;DHT22;6042;41.326;19.826;2023-09-07T09:14:36;29.80;65.00
11965;DHT22;6042;41.326;19.826;2023-09-07T09:17:04;29.80;65.90
11965;DHT22;6042;41.326;19.826;2023-09-07T09:19:33;29.60;64.70
11965;DHT22;6042;41.326;19.826;2023-09-07T09:22:02;29.50;65.90
11965;DHT22;6042;41.326;19.826;2023-09-07T09:24:33;29.50;64.90
11965;DHT22;6042;41.326;19.826;2023-09-07T09:27:02;29.70;64.60
11965;DHT22;6042;41.326;19.826;2023-09-07T09:29:32;29.80;63.80
11965;DHT22;6042;41.326;19.826;2023-09-07T09:32:03;30.00;64.20
11965;DHT22;6042;41.326;19.826;2023-09-07T09:34:33;30.10;62.90
11965;DHT22;6042;41.326;19.826;2023-09-07T09:37:02;30.20;63.20
11965;DHT22;6042;41.326;19.826;2023-09-07T09:39:33;30.20;62.50
11965;DHT22;6042;41.326;19.826;2023-09-07T09:42:03;30.30;62.60
11965;DHT22;6042;41.326;19.826;2023-09-07T09:44:34;30.50;62.80
11965;DHT22;6042;41.326;19.826;2023-09-07T09:47:05;30.40;62.20
11965;DHT22;6042;41.326;19.826;2023-09-07T09:49:35;30.30;62.50
11965;DHT22;6042;41.326;19.826;2023-09-07T09:52:04;30.30;62.10
11965;DHT22;6042;41.326;19.826;2023-09-07T09:54:35;30.10;62.00
11965;DHT22;6042;41.326;19.826;2023-09-07T09:57:04;30.20;61.80
11965;DHT22;6042;41.326;19.826;2023-09-07T09:59:32;30.50;61.90
11965;DHT22;6042;41.326;19.826;2023-09-07T10:02:01;30.40;62.40
11965;DHT22;6042;41.326;19.826;2023-09-07T10:04:31;30.40;61.80
11965;DHT22;6042;41.326;19.826;2023-09-07T10:07:00;30.50;62.40
11965;DHT22;6042;41.326;19.826;2023-09-07T10:09:34;30.50;62.20
11965;DHT22;6042;41.326;19.826;2023-09-07T10:12:05;30.40;60.70
11965;DHT22;6042;41.326;19.826;2023-09-07T10:14:39;30.40;62.60
11965;DHT22;6042;41.326;19.826;2023-09-07T10:17:07;30.20;61.40
11965;DHT22;6042;41.326;19.826;2023-09-07T10:19:37;30.30;60.40
11965;DHT22;6042;41.326;19.826;2023-09-07T10:22:08;30.50;60.80
11965;DHT22;6042;41.326;19.826;2023-09-07T10:24:37;30.50;60.60
11965;DHT22;6042;41.326;19.826;2023-09-07T10:27:09;30.30;60.10
11965;DHT22;6042;41.326;19.826;2023-09-07T10:29:42;30.20;60.80
11965;DHT22;6042;41.326;19.826;2023-09-07T10:32:11;30.30;62.40
11965;DHT22;6042;41.326;19.826;2023-09-07T10:34:46;30.60;60.20
11965;DHT22;6042;41.326;19.826;2023-09-07T10:37:14;30.60;60.50
11965;DHT22;6042;41.326;19.826;2023-09-07T10:39:45;30.80;60.20
11965;DHT22;6042;41.326;19.826;2023-09-07T10:42:20;30.80;60.00
11965;DHT22;6042;41.326;19.826;2023-09-07T10:44:51;31.00;59.70
11965;DHT22;6042;41.326;19.826;2023-09-07T10:47:20;31.10;59.20
11965;DHT22;6042;41.326;19.826;2023-09-07T10:49:49;31.00;59.10
11965;DHT22;6042;41.326;19.826;2023-09-07T10:52:20;31.00;58.50
11965;DHT22;6042;41.326;19.826;2023-09-07T10:54:57;31.30;59.20
11965;DHT22;6042;41.326;19.826;2023-09-07T10:57:25;31.20;59.80
11965;DHT22;6042;41.326;19.826;2023-09-07T10:59:54;31.00;59.80
11965;DHT22;6042;41.326;19.826;2023-09-07T11:02:23;30.50;61.50
11965;DHT22;6042;41.326;19.826;2023-09-07T11:04:51;30.50;62.00
11965;DHT22;6042;41.326;19.826;2023-09-07T11:07:21;30.40;61.20
11965;DHT22;6042;41.326;19.826;2023-09-07T11:09:51;30.40;61.30
11965;DHT22;6042;41.326;19.826;2023-09-07T11:12:22;30.40;62.20
11965;DHT22;6042;41.326;19.826;2023-09-07T11:14:50;30.40;62.10
11965;DHT22;6042;41.326;19.826;2023-09-07T11:17:19;30.50;61.50
11965;DHT22;6042;41.326;19.826;2023-09-07T11:19:54;30.60;60.40
11965;DHT22;6042;41.326;19.826;2023-09-07T11:22:22;30.60;59.10
11965;DHT22;6042;41.326;19.826;2023-09-07T11:24:51;30.30;58.70
11965;DHT22;6042;41.326;19.826;2023-09-07T11:27:21;30.20;59.60
11965;DHT22;6042;41.326;19.826;2023-09-07T11:29:52;30.30;58.80
11965;DHT22;6042;41.326;19.826;2023-09-07T11:32:21;30.40;59.40
11965;DHT22;6042;41.326;19.826;2023-09-07T11:34:51;30.40;62.00
11965;DHT22;6042;41.326;19.826;2023-09-07T11:37:24;30.30;61.70
11965;DHT22;6042;41.326;19.826;2023-09-07T11:39:53;30.30;60.20
11965;DHT22;6042;41.326;19.826;2023-09-07T11:42:23;30.40;60.10
11965;DHT22;6042;41.326;19.826;2023-09-07T11:44:52;30.30;58.90
11965;DHT22;6042;41.326;19.826;2023-09-07T11:47:20;30.20;59.40
11965;DHT22;6042;41.326;19.826;2023-09-07T11:49:49;30.20;59.20
11965;DHT22;6042;41.326;19.826;2023-09-07T11:52:18;30.20;58.90
11965;DHT22;6042;41.326;19.826;2023-09-07T11:54:47;30.20;58.40
11965;DHT22;6042;41.326;19.826;2023-09-07T11:57:15;30.40;58.60
11965;DHT22;6042;41.326;19.826;2023-09-07T11:59:45;30.30;58.00
11965;DHT22;6042;41.326;19.826;2023-09-07T12:02:25;30.60;58.60
11965;DHT22;6042;41.326;19.826;2023-09-07T12:04:54;31.00;57.40
11965;DHT22;6042;41.326;19.826;2023-09-07T12:07:23;31.20;57.40
11965;DHT22;6042;41.326;19.826;2023-09-07T12:09:52;31.40;57.90
11965;DHT22;6042;41.326;19.826;2023-09-07T12:12:23;31.60;56.80
11965;DHT22;6042;41.326;19.826;2023-09-07T12:14:53;31.90;57.20
11965;DHT22;6042;41.326;19.826;2023-09-07T12:17:23;31.80;56.30
11965;DHT22;6042;41.326;19.826;2023-09-07T12:19:52;31.60;56.20
11965;DHT22;6042;41.326;19.826;2023-09-07T12:22:20;31.70;56.50
11965;DHT22;6042;41.326;19.826;2023-09-07T12:24:49;31.60;56.20
11965;DHT22;6042;41.326;19.826;2023-09-07T12:27:39;31.50;56.10
11965;DHT22;6042;41.326;19.826;2023-09-07T12:30:22;31.40;56.20
11965;DHT22;6042;41.326;19.826;2023-09-07T12:32:51;31.50;55.70
11965;DHT22;6042;41.326;19.826;2023-09-07T12:35:20;30.90;56.20
11965;DHT22;6042;41.326;19.826;2023-09-07T12:37:49;30.70;56.60
11965;DHT22;6042;41.326;19.826;2023-09-07T12:40:17;30.60;57.10
11965;DHT22;6042;41.326;19.826;2023-09-07T12:42:46;30.80;57.90
11965;DHT22;6042;41.326;19.826;2023-09-07T12:45:15;30.90;57.60
11965;DHT22;6042;41.326;19.826;2023-09-07T12:47:45;31.00;57.30
11965;DHT22;6042;41.326;19.826;2023-09-07T12:50:13;31.10;57.50
11965;DHT22;6042;41.326;19.826;2023-09-07T12:52:41;31.00;58.00
11965;DHT22;6042;41.326;19.826;2023-09-07T12:55:10;30.90;58.10
11965;DHT22;6042;41.326;19.826;2023-09-07T12:57:38;30.90;59.20
11965;DHT22;6042;41.326;19.826;2023-09-07T13:00:08;30.90;58.50
11965;DHT22;6042;41.326;19.826;2023-09-07T13:02:38;31.10;58.10
11965;DHT22;6042;41.326;19.826;2023-09-07T13:05:09;31.00;57.50
11965;DHT22;6042;41.326;19.826;2023-09-07T13:07:37;30.70;57.60
11965;DHT22;6042;41.326;19.826;2023-09-07T13:10:08;30.50;57.80
11965;DHT22;6042;41.326;19.826;2023-09-07T13:12:38;30.40;58.10
11965;DHT22;6042;41.326;19.826;2023-09-07T13:15:07;30.20;58.40
11965;DHT22;6042;41.326;19.826;2023-09-07T13:17:36;30.30;58.60
11965;DHT22;6042;41.326;19.826;2023-09-07T13:20:06;30.50;58.60
11965;DHT22;6042;41.326;19.826;2023-09-07T13:22:36;30.80;58.50
11965;DHT22;6042;41.326;19.826;2023-09-07T13:25:05;30.90;57.90
11965;DHT22;6042;41.326;19.826;2023-09-07T13:27:34;31.10;58.60
11965;DHT22;6042;41.326;19.826;2023-09-07T13:30:04;31.30;58.10
11965;DHT22;6042;41.326;19.826;2023-09-07T13:32:33;31.10;58.30
11965;DHT22;6042;41.326;19.826;2023-09-07T13:35:01;31.60;58.20
11965;DHT22;6042;41.326;19.826;2023-09-07T13:37:30;32.40;56.90
11965;DHT22;6042;41.326;19.826;2023-09-07T13:39:59;32.90;55.50
11965;DHT22;6042;41.326;19.826;2023-09-07T13:42:29;32.90;55.10
11965;DHT22;6042;41.326;19.826;2023-09-07T13:44:57;33.40;54.60
11965;DHT22;6042;41.326;19.826;2023-09-07T13:47:26;34.70;53.10
11965;DHT22;6042;41.326;19.826;2023-09-07T13:49:54;35.70;51.80
11965;DHT22;6042;41.326;19.826;2023-09-07T13:52:23;37.30;49.70
11965;DHT22;6042;41.326;19.826;2023-09-07T13:54:51;38.70;47.70
11965;DHT22;6042;41.326;19.826;2023-09-07T13:57:21;40.10;46.40
11965;DHT22;6042;41.326;19.826;2023-09-07T13:59:50;39.90;44.60
11965;DHT22;6042;41.326;19.826;2023-09-07T14:02:19;39.70;44.80
11965;DHT22;6042;41.326;19.826;2023-09-07T14:04:47;39.90;45.10
11965;DHT22;6042;41.326;19.826;2023-09-07T14:07:16;39.90;44.40
11965;DHT22;6042;41.326;19.826;2023-09-07T14:09:45;39.00;45.30
11965;DHT22;6042;41.326;19.826;2023-09-07T14:12:13;39.40;44.60
11965;DHT22;6042;41.326;19.826;2023-09-07T14:14:43;37.50;45.60
11965;DHT22;6042;41.326;19.826;2023-09-07T14:17:12;36.30;48.40
11965;DHT22;6042;41.326;19.826;2023-09-07T14:19:41;35.80;48.80
11965;DHT22;6042;41.326;19.826;2023-09-07T14:22:10;35.80;49.20
11965;DHT22;6042;41.326;19.826;2023-09-07T14:24:38;36.90;47.70
11965;DHT22;6042;41.326;19.826;2023-09-07T14:27:07;37.60;47.00
11965;DHT22;6042;41.326;19.826;2023-09-07T14:29:36;38.00;46.20
11965;DHT22;6042;41.326;19.826;2023-09-07T14:32:06;37.50;47.00
11965;DHT22;6042;41.326;19.826;2023-09-07T14:34:35;37.30;48.00
11965;DHT22;6042;41.326;19.826;2023-09-07T14:37:05;36.70;47.00
11965;DHT22;6042;41.326;19.826;2023-09-07T14:39:33;36.50;48.00
11965;DHT22;6042;41.326;19.826;2023-09-07T14:42:03;37.20;48.40
11965;DHT22;6042;41.326;19.826;2023-09-07T14:44:38;36.60;48.30
11965;DHT22;6042;41.326;19.826;2023-09-07T14:47:08;34.90;49.50
11965;DHT22;6042;41.326;19.826;2023-09-07T14:49:37;33.90;51.80
11965;DHT22;6042;41.326;19.826;2023-09-07T14:52:06;33.40;53.10
11965;DHT22;6042;41.326;19.826;2023-09-07T14:54:34;33.10;53.20
11965;DHT22;6042;41.326;19.826;2023-09-07T14:57:03;32.70;53.70
11965;DHT22;6042;41.326;19.826;2023-09-07T14:59:31;32.00;54.00
11965;DHT22;6042;41.326;19.826;2023-09-07T15:01:59;32.00;54.80
11965;DHT22;6042;41.326;19.826;2023-09-07T15:04:35;31.90;54.90
11965;DHT22;6042;41.326;19.826;2023-09-07T15:07:04;32.00;55.00
11965;DHT22;6042;41.326;19.826;2023-09-07T15:09:33;32.00;54.50
11965;DHT22;6042;41.326;19.826;2023-09-07T15:12:02;31.70;55.30
11965;DHT22;6042;41.326;19.826;2023-09-07T15:14:30;31.40;56.40
11965;DHT22;6042;41.326;19.826;2023-09-07T15:16:59;31.30;57.00
11965;DHT22;6042;41.326;19.826;2023-09-07T15:19:28;31.30;56.90
11965;DHT22;6042;41.326;19.826;2023-09-07T15:21:58;31.30;57.30
11965;DHT22;6042;41.326;19.826;2023-09-07T15:24:27;31.10;57.40
11965;DHT22;6042;41.326;19.826;2023-09-07T15:26:55;31.00;57.20
11965;DHT22;6042;41.326;19.826;2023-09-07T15:29:24;30.90;57.50
11965;DHT22;6042;41.326;19.826;2023-09-07T15:31:52;30.80;58.20
11965;DHT22;6042;41.326;19.826;2023-09-07T15:34:21;31.00;57.90
11965;DHT22;6042;41.326;19.826;2023-09-07T15:36:50;30.80;57.40
11965;DHT22;6042;41.326;19.826;2023-09-07T15:39:20;30.60;57.60
11965;DHT22;6042;41.326;19.826;2023-09-07T15:41:48;30.60;57.70
11965;DHT22;6042;41.326;19.826;2023-09-07T15:44:16;30.60;58.00
11965;DHT22;6042;41.326;19.826;2023-09-07T15:46:45;30.50;58.80